sensor_id;sensor_type;location;lat;lon;timestamp;P1;durP1;ratioP1;P2;durP2;ratioP2
61702;SDS011;47622;47.726;3.298;2023-02-08T00:01:07;23.75;;;13.10;;
61702;SDS011;47622;47.726;3.298;2023-02-08T00:03:34;26.20;;;13.90;;
61702;SDS011;47622;47.726;3.298;2023-02-08T00:06:00;23.15;;;13.48;;
61702;SDS011;47622;47.726;3.298;2023-02-08T00:08:26;25.75;;;17.85;;
61702;SDS011;47622;47.726;3.298;2023-02-08T00:10:51;24.67;;;14.50;;
61702;SDS011;47622;47.726;3.298;2023-02-08T00:13:17;23.05;;;13.63;;
61702;SDS011;47622;47.726;3.298;2023-02-08T00:15:43;24.65;;;13.77;;
61702;SDS011;47622;47.726;3.298;2023-02-08T00:18:10;23.75;;;13.70;;
61702;SDS011;47622;47.726;3.298;2023-02-08T00:20:39;20.55;;;12.50;;
61702;SDS011;47622;47.726;3.298;2023-02-08T00:23:06;22.20;;;13.60;;
61702;SDS011;47622;47.726;3.298;2023-02-08T00:25:32;25.10;;;13.10;;
61702;SDS011;47622;47.726;3.298;2023-02-08T00:27:58;24.27;;;13.15;;
61702;SDS011;47622;47.726;3.298;2023-02-08T00:30:23;22.55;;;13.32;;
61702;SDS011;47622;47.726;3.298;2023-02-08T00:32:49;26.65;;;13.38;;
61702;SDS011;47622;47.726;3.298;2023-02-08T00:35:15;26.70;;;14.68;;
61702;SDS011;47622;47.726;3.298;2023-02-08T00:37:40;27.20;;;14.18;;
61702;SDS011;47622;47.726;3.298;2023-02-08T00:40:06;24.58;;;13.75;;
61702;SDS011;47622;47.726;3.298;2023-02-08T00:42:32;25.10;;;17.70;;
61702;SDS011;47622;47.726;3.298;2023-02-08T00:44:58;25.60;;;18.80;;
61702;SDS011;47622;47.726;3.298;2023-02-08T00:47:23;24.25;;;14.73;;
61702;SDS011;47622;47.726;3.298;2023-02-08T00:49:49;21.70;;;13.95;;
61702;SDS011;47622;47.726;3.298;2023-02-08T00:52:15;25.35;;;14.30;;
61702;SDS011;47622;47.726;3.298;2023-02-08T00:54:41;24.88;;;13.43;;
61702;SDS011;47622;47.726;3.298;2023-02-08T00:57:07;23.88;;;13.68;;
61702;SDS011;47622;47.726;3.298;2023-02-08T00:59:33;25.63;;;13.73;;
61702;SDS011;47622;47.726;3.298;2023-02-08T01:01:58;26.85;;;12.43;;
61702;SDS011;47622;47.726;3.298;2023-02-08T01:04:24;25.97;;;18.00;;
61702;SDS011;47622;47.726;3.298;2023-02-08T01:06:50;20.13;;;13.68;;
61702;SDS011;47622;47.726;3.298;2023-02-08T01:09:16;33.05;;;14.95;;
61702;SDS011;47622;47.726;3.298;2023-02-08T01:11:41;26.83;;;19.13;;
61702;SDS011;47622;47.726;3.298;2023-02-08T01:14:07;24.92;;;14.30;;
61702;SDS011;47622;47.726;3.298;2023-02-08T01:16:33;25.48;;;13.80;;
61702;SDS011;47622;47.726;3.298;2023-02-08T01:18:59;25.45;;;14.50;;
61702;SDS011;47622;47.726;3.298;2023-02-08T01:24:00;24.70;;;13.10;;
61702;SDS011;47622;47.726;3.298;2023-02-08T01:26:26;22.90;;;12.70;;
61702;SDS011;47622;47.726;3.298;2023-02-08T01:28:52;26.85;;;13.10;;
61702;SDS011;47622;47.726;3.298;2023-02-08T01:31:21;21.95;;;13.63;;
61702;SDS011;47622;47.726;3.298;2023-02-08T01:33:49;24.67;;;13.77;;
61702;SDS011;47622;47.726;3.298;2023-02-08T01:36:15;25.23;;;13.52;;
61702;SDS011;47622;47.726;3.298;2023-02-08T01:38:41;24.58;;;13.25;;
61702;SDS011;47622;47.726;3.298;2023-02-08T01:41:12;25.67;;;12.15;;
61702;SDS011;47622;47.726;3.298;2023-02-08T01:46:27;24.92;;;14.10;;
61702;SDS011;47622;47.726;3.298;2023-02-08T01:48:53;28.00;;;13.93;;
61702;SDS011;47622;47.726;3.298;2023-02-08T01:51:23;23.92;;;13.15;;
61702;SDS011;47622;47.726;3.298;2023-02-08T01:53:51;24.48;;;12.85;;
61702;SDS011;47622;47.726;3.298;2023-02-08T01:56:20;22.63;;;12.48;;
61702;SDS011;47622;47.726;3.298;2023-02-08T01:58:50;21.88;;;13.02;;
61702;SDS011;47622;47.726;3.298;2023-02-08T02:01:17;24.17;;;13.00;;
61702;SDS011;47622;47.726;3.298;2023-02-08T02:03:43;20.90;;;12.93;;
61702;SDS011;47622;47.726;3.298;2023-02-08T02:06:15;24.17;;;12.88;;
61702;SDS011;47622;47.726;3.298;2023-02-08T02:12:02;22.05;;;12.15;;
61702;SDS011;47622;47.726;3.298;2023-02-08T02:14:30;26.45;;;13.02;;
61702;SDS011;47622;47.726;3.298;2023-02-08T02:16:58;24.00;;;12.30;;
61702;SDS011;47622;47.726;3.298;2023-02-08T02:31:03;31.38;;;15.02;;
61702;SDS011;47622;47.726;3.298;2023-02-08T02:36:27;26.38;;;14.07;;
61702;SDS011;47622;47.726;3.298;2023-02-08T02:41:39;24.88;;;13.85;;
61702;SDS011;47622;47.726;3.298;2023-02-08T02:50:25;28.85;;;14.95;;
61702;SDS011;47622;47.726;3.298;2023-02-08T02:53:05;27.58;;;14.82;;
61702;SDS011;47622;47.726;3.298;2023-02-08T02:55:36;32.00;;;15.82;;
61702;SDS011;47622;47.726;3.298;2023-02-08T02:58:06;29.88;;;16.10;;
61702;SDS011;47622;47.726;3.298;2023-02-08T03:00:35;28.92;;;14.05;;
61702;SDS011;47622;47.726;3.298;2023-02-08T03:03:01;30.27;;;15.48;;
61702;SDS011;47622;47.726;3.298;2023-02-08T03:05:27;25.58;;;15.10;;
61702;SDS011;47622;47.726;3.298;2023-02-08T03:10:49;26.17;;;15.52;;
61702;SDS011;47622;47.726;3.298;2023-02-08T03:13:27;29.40;;;15.88;;
61702;SDS011;47622;47.726;3.298;2023-02-08T03:19:25;30.42;;;16.30;;
61702;SDS011;47622;47.726;3.298;2023-02-08T03:21:56;30.08;;;16.27;;
61702;SDS011;47622;47.726;3.298;2023-02-08T03:24:28;27.95;;;14.93;;
61702;SDS011;47622;47.726;3.298;2023-02-08T03:29:49;28.50;;;14.48;;
61702;SDS011;47622;47.726;3.298;2023-02-08T03:32:40;29.30;;;14.50;;
61702;SDS011;47622;47.726;3.298;2023-02-08T03:37:42;27.83;;;15.75;;
61702;SDS011;47622;47.726;3.298;2023-02-08T03:40:15;27.52;;;15.68;;
61702;SDS011;47622;47.726;3.298;2023-02-08T03:42:46;27.58;;;15.02;;
61702;SDS011;47622;47.726;3.298;2023-02-08T03:45:19;25.75;;;14.52;;
61702;SDS011;47622;47.726;3.298;2023-02-08T03:47:49;28.70;;;16.08;;
61702;SDS011;47622;47.726;3.298;2023-02-08T03:50:17;31.33;;;16.40;;
61702;SDS011;47622;47.726;3.298;2023-02-08T03:52:46;34.47;;;16.00;;
61702;SDS011;47622;47.726;3.298;2023-02-08T03:55:15;26.95;;;15.20;;
61702;SDS011;47622;47.726;3.298;2023-02-08T03:57:51;28.92;;;15.50;;
61702;SDS011;47622;47.726;3.298;2023-02-08T04:02:53;27.10;;;14.90;;
61702;SDS011;47622;47.726;3.298;2023-02-08T04:05:21;28.05;;;14.52;;
61702;SDS011;47622;47.726;3.298;2023-02-08T04:07:48;27.15;;;15.60;;
61702;SDS011;47622;47.726;3.298;2023-02-08T04:10:15;27.65;;;14.85;;
61702;SDS011;47622;47.726;3.298;2023-02-08T04:12:41;28.13;;;15.77;;
61702;SDS011;47622;47.726;3.298;2023-02-08T04:15:07;27.30;;;15.00;;
61702;SDS011;47622;47.726;3.298;2023-02-08T04:17:33;30.95;;;15.88;;
61702;SDS011;47622;47.726;3.298;2023-02-08T04:19:59;29.77;;;15.25;;
61702;SDS011;47622;47.726;3.298;2023-02-08T04:22:25;30.23;;;15.30;;
61702;SDS011;47622;47.726;3.298;2023-02-08T04:24:51;26.15;;;14.70;;
61702;SDS011;47622;47.726;3.298;2023-02-08T04:27:16;23.70;;;14.18;;
61702;SDS011;47622;47.726;3.298;2023-02-08T04:29:42;26.98;;;15.20;;
61702;SDS011;47622;47.726;3.298;2023-02-08T04:32:07;26.10;;;15.10;;
61702;SDS011;47622;47.726;3.298;2023-02-08T04:34:36;29.50;;;15.82;;
61702;SDS011;47622;47.726;3.298;2023-02-08T04:37:02;26.08;;;14.55;;
61702;SDS011;47622;47.726;3.298;2023-02-08T04:39:28;28.20;;;15.35;;
61702;SDS011;47622;47.726;3.298;2023-02-08T04:41:54;28.10;;;14.93;;
61702;SDS011;47622;47.726;3.298;2023-02-08T04:44:20;27.60;;;15.10;;
61702;SDS011;47622;47.726;3.298;2023-02-08T04:46:45;28.10;;;14.85;;
61702;SDS011;47622;47.726;3.298;2023-02-08T04:49:11;28.73;;;15.63;;
61702;SDS011;47622;47.726;3.298;2023-02-08T04:51:37;28.75;;;16.27;;
61702;SDS011;47622;47.726;3.298;2023-02-08T04:54:02;25.08;;;15.40;;
61702;SDS011;47622;47.726;3.298;2023-02-08T04:56:28;31.52;;;16.08;;
61702;SDS011;47622;47.726;3.298;2023-02-08T04:58:53;28.38;;;16.58;;
61702;SDS011;47622;47.726;3.298;2023-02-08T05:01:19;32.58;;;16.88;;
61702;SDS011;47622;47.726;3.298;2023-02-08T05:03:44;27.42;;;15.52;;
61702;SDS011;47622;47.726;3.298;2023-02-08T05:06:10;31.83;;;17.00;;
61702;SDS011;47622;47.726;3.298;2023-02-08T05:08:36;35.97;;;17.40;;
61702;SDS011;47622;47.726;3.298;2023-02-08T05:11:01;32.05;;;15.85;;
61702;SDS011;47622;47.726;3.298;2023-02-08T05:13:27;32.85;;;17.20;;
61702;SDS011;47622;47.726;3.298;2023-02-08T05:15:52;33.30;;;16.67;;
61702;SDS011;47622;47.726;3.298;2023-02-08T05:18:18;30.38;;;15.82;;
61702;SDS011;47622;47.726;3.298;2023-02-08T05:20:44;31.67;;;16.67;;
61702;SDS011;47622;47.726;3.298;2023-02-08T05:23:09;27.92;;;16.77;;
61702;SDS011;47622;47.726;3.298;2023-02-08T05:25:36;29.98;;;16.52;;
61702;SDS011;47622;47.726;3.298;2023-02-08T05:28:03;30.77;;;16.73;;
61702;SDS011;47622;47.726;3.298;2023-02-08T05:30:29;29.98;;;15.73;;
61702;SDS011;47622;47.726;3.298;2023-02-08T05:32:55;29.58;;;16.60;;
61702;SDS011;47622;47.726;3.298;2023-02-08T05:35:21;32.30;;;16.67;;
61702;SDS011;47622;47.726;3.298;2023-02-08T05:37:46;28.98;;;16.42;;
61702;SDS011;47622;47.726;3.298;2023-02-08T05:40:12;30.40;;;16.52;;
61702;SDS011;47622;47.726;3.298;2023-02-08T05:42:37;31.42;;;16.85;;
61702;SDS011;47622;47.726;3.298;2023-02-08T05:45:04;29.25;;;14.68;;
61702;SDS011;47622;47.726;3.298;2023-02-08T05:47:30;35.28;;;23.40;;
61702;SDS011;47622;47.726;3.298;2023-02-08T05:49:55;31.40;;;18.15;;
61702;SDS011;47622;47.726;3.298;2023-02-08T05:52:21;31.55;;;16.05;;
61702;SDS011;47622;47.726;3.298;2023-02-08T05:54:46;34.92;;;16.75;;
61702;SDS011;47622;47.726;3.298;2023-02-08T05:57:12;29.88;;;15.82;;
61702;SDS011;47622;47.726;3.298;2023-02-08T05:59:37;29.52;;;15.98;;
61702;SDS011;47622;47.726;3.298;2023-02-08T06:02:03;32.65;;;16.42;;
61702;SDS011;47622;47.726;3.298;2023-02-08T06:04:28;31.85;;;17.27;;
61702;SDS011;47622;47.726;3.298;2023-02-08T06:06:54;27.23;;;15.43;;
61702;SDS011;47622;47.726;3.298;2023-02-08T06:09:20;27.92;;;15.93;;
61702;SDS011;47622;47.726;3.298;2023-02-08T06:11:45;31.08;;;16.83;;
61702;SDS011;47622;47.726;3.298;2023-02-08T06:14:11;32.80;;;16.70;;
61702;SDS011;47622;47.726;3.298;2023-02-08T06:16:37;32.40;;;17.90;;
61702;SDS011;47622;47.726;3.298;2023-02-08T06:19:02;36.15;;;19.30;;
61702;SDS011;47622;47.726;3.298;2023-02-08T06:21:28;31.52;;;16.80;;
61702;SDS011;47622;47.726;3.298;2023-02-08T06:23:54;36.03;;;17.42;;
61702;SDS011;47622;47.726;3.298;2023-02-08T06:26:19;29.90;;;16.80;;
61702;SDS011;47622;47.726;3.298;2023-02-08T06:28:45;33.15;;;16.58;;
61702;SDS011;47622;47.726;3.298;2023-02-08T06:31:10;30.95;;;16.77;;
61702;SDS011;47622;47.726;3.298;2023-02-08T06:33:36;31.75;;;16.35;;
61702;SDS011;47622;47.726;3.298;2023-02-08T06:36:01;30.77;;;17.00;;
61702;SDS011;47622;47.726;3.298;2023-02-08T06:38:27;36.13;;;18.38;;
61702;SDS011;47622;47.726;3.298;2023-02-08T06:40:53;36.88;;;18.38;;
61702;SDS011;47622;47.726;3.298;2023-02-08T06:43:18;33.53;;;17.88;;
61702;SDS011;47622;47.726;3.298;2023-02-08T06:45:44;34.70;;;18.02;;
61702;SDS011;47622;47.726;3.298;2023-02-08T06:48:11;35.42;;;18.15;;
61702;SDS011;47622;47.726;3.298;2023-02-08T06:50:37;33.58;;;18.17;;
61702;SDS011;47622;47.726;3.298;2023-02-08T06:53:03;32.65;;;17.70;;
61702;SDS011;47622;47.726;3.298;2023-02-08T06:55:28;36.22;;;18.00;;
61702;SDS011;47622;47.726;3.298;2023-02-08T06:57:54;34.22;;;17.73;;
61702;SDS011;47622;47.726;3.298;2023-02-08T07:00:20;33.92;;;18.02;;
61702;SDS011;47622;47.726;3.298;2023-02-08T07:02:46;34.17;;;17.58;;
61702;SDS011;47622;47.726;3.298;2023-02-08T07:05:12;34.50;;;18.83;;
61702;SDS011;47622;47.726;3.298;2023-02-08T07:07:38;37.70;;;18.27;;
61702;SDS011;47622;47.726;3.298;2023-02-08T07:10:04;33.50;;;18.35;;
61702;SDS011;47622;47.726;3.298;2023-02-08T07:12:33;38.00;;;18.10;;
61702;SDS011;47622;47.726;3.298;2023-02-08T07:15:00;34.72;;;18.38;;
61702;SDS011;47622;47.726;3.298;2023-02-08T07:17:26;34.42;;;18.33;;
61702;SDS011;47622;47.726;3.298;2023-02-08T07:19:51;32.50;;;18.55;;
61702;SDS011;47622;47.726;3.298;2023-02-08T07:22:17;31.92;;;18.58;;
61702;SDS011;47622;47.726;3.298;2023-02-08T07:24:43;35.90;;;18.38;;
61702;SDS011;47622;47.726;3.298;2023-02-08T07:27:09;33.70;;;18.52;;
61702;SDS011;47622;47.726;3.298;2023-02-08T07:29:36;35.15;;;17.38;;
61702;SDS011;47622;47.726;3.298;2023-02-08T07:32:03;35.22;;;17.42;;
61702;SDS011;47622;47.726;3.298;2023-02-08T07:34:30;31.05;;;18.27;;
61702;SDS011;47622;47.726;3.298;2023-02-08T07:36:57;33.28;;;17.77;;
61702;SDS011;47622;47.726;3.298;2023-02-08T07:39:23;31.77;;;18.55;;
61702;SDS011;47622;47.726;3.298;2023-02-08T07:44:14;30.90;;;16.77;;
61702;SDS011;47622;47.726;3.298;2023-02-08T07:46:40;36.00;;;16.92;;
61702;SDS011;47622;47.726;3.298;2023-02-08T07:51:31;31.80;;;16.45;;
61702;SDS011;47622;47.726;3.298;2023-02-08T07:56:22;27.55;;;14.93;;
61702;SDS011;47622;47.726;3.298;2023-02-08T08:01:15;28.83;;;15.57;;
61702;SDS011;47622;47.726;3.298;2023-02-08T08:03:41;27.25;;;15.35;;
61702;SDS011;47622;47.726;3.298;2023-02-08T08:06:06;29.30;;;15.75;;
61702;SDS011;47622;47.726;3.298;2023-02-08T08:08:32;27.17;;;15.93;;
61702;SDS011;47622;47.726;3.298;2023-02-08T08:10:58;28.13;;;15.52;;
61702;SDS011;47622;47.726;3.298;2023-02-08T08:15:49;29.10;;;14.93;;
61702;SDS011;47622;47.726;3.298;2023-02-08T08:18:14;29.30;;;15.18;;
61702;SDS011;47622;47.726;3.298;2023-02-08T08:20:40;27.73;;;15.60;;
61702;SDS011;47622;47.726;3.298;2023-02-08T08:23:06;27.33;;;14.90;;
61702;SDS011;47622;47.726;3.298;2023-02-08T08:25:32;25.25;;;14.73;;
61702;SDS011;47622;47.726;3.298;2023-02-08T08:27:57;25.95;;;14.60;;
61702;SDS011;47622;47.726;3.298;2023-02-08T08:30:24;21.92;;;14.60;;
61702;SDS011;47622;47.726;3.298;2023-02-08T08:32:50;29.38;;;16.20;;
61702;SDS011;47622;47.726;3.298;2023-02-08T08:35:15;25.58;;;14.73;;
61702;SDS011;47622;47.726;3.298;2023-02-08T08:37:41;23.08;;;14.70;;
61702;SDS011;47622;47.726;3.298;2023-02-08T08:40:07;19.85;;;14.50;;
61702;SDS011;47622;47.726;3.298;2023-02-08T08:42:34;19.75;;;14.10;;
61702;SDS011;47622;47.726;3.298;2023-02-08T08:45:00;22.30;;;13.43;;
61702;SDS011;47622;47.726;3.298;2023-02-08T08:47:26;22.75;;;14.18;;
61702;SDS011;47622;47.726;3.298;2023-02-08T08:49:52;22.27;;;15.75;;
61702;SDS011;47622;47.726;3.298;2023-02-08T08:52:18;20.83;;;14.50;;
61702;SDS011;47622;47.726;3.298;2023-02-08T08:54:43;24.08;;;15.23;;
61702;SDS011;47622;47.726;3.298;2023-02-08T08:57:10;20.92;;;14.52;;
61702;SDS011;47622;47.726;3.298;2023-02-08T08:59:35;20.35;;;14.52;;
61702;SDS011;47622;47.726;3.298;2023-02-08T09:02:01;25.27;;;15.27;;
61702;SDS011;47622;47.726;3.298;2023-02-08T09:04:27;19.08;;;13.30;;
61702;SDS011;47622;47.726;3.298;2023-02-08T09:06:52;19.48;;;13.93;;
61702;SDS011;47622;47.726;3.298;2023-02-08T09:09:19;20.77;;;13.68;;
61702;SDS011;47622;47.726;3.298;2023-02-08T09:11:46;24.08;;;14.13;;
61702;SDS011;47622;47.726;3.298;2023-02-08T09:14:12;19.50;;;13.10;;
61702;SDS011;47622;47.726;3.298;2023-02-08T09:16:42;23.13;;;13.85;;
61702;SDS011;47622;47.726;3.298;2023-02-08T09:19:12;23.50;;;14.25;;
61702;SDS011;47622;47.726;3.298;2023-02-08T09:21:38;22.27;;;13.65;;
61702;SDS011;47622;47.726;3.298;2023-02-08T09:24:04;23.02;;;14.63;;
61702;SDS011;47622;47.726;3.298;2023-02-08T09:26:30;23.02;;;14.45;;
61702;SDS011;47622;47.726;3.298;2023-02-08T09:28:56;21.23;;;14.23;;
61702;SDS011;47622;47.726;3.298;2023-02-08T09:31:23;21.30;;;14.00;;
61702;SDS011;47622;47.726;3.298;2023-02-08T09:33:51;26.05;;;14.25;;
61702;SDS011;47622;47.726;3.298;2023-02-08T09:36:19;19.92;;;12.98;;
61702;SDS011;47622;47.726;3.298;2023-02-08T09:38:46;20.73;;;13.43;;
61702;SDS011;47622;47.726;3.298;2023-02-08T09:47:15;19.20;;;13.38;;
61702;SDS011;47622;47.726;3.298;2023-02-08T09:49:52;17.83;;;13.50;;
61702;SDS011;47622;47.726;3.298;2023-02-08T09:52:20;18.73;;;13.02;;
61702;SDS011;47622;47.726;3.298;2023-02-08T09:57:21;20.77;;;13.00;;
61702;SDS011;47622;47.726;3.298;2023-02-08T10:00:34;19.55;;;13.70;;
61702;SDS011;47622;47.726;3.298;2023-02-08T10:02:42;21.42;;;14.15;;
61702;SDS011;47622;47.726;3.298;2023-02-08T10:05:12;19.05;;;12.45;;
61702;SDS011;47622;47.726;3.298;2023-02-08T10:07:40;18.52;;;13.32;;
61702;SDS011;47622;47.726;3.298;2023-02-08T10:10:11;19.75;;;14.05;;
61702;SDS011;47622;47.726;3.298;2023-02-08T10:12:50;19.20;;;13.27;;
61702;SDS011;47622;47.726;3.298;2023-02-08T10:23:44;18.83;;;13.15;;
61702;SDS011;47622;47.726;3.298;2023-02-08T10:35:00;18.67;;;13.20;;
61702;SDS011;47622;47.726;3.298;2023-02-08T10:37:35;22.83;;;14.52;;
61702;SDS011;47622;47.726;3.298;2023-02-08T10:43:29;24.10;;;15.23;;
61702;SDS011;47622;47.726;3.298;2023-02-08T10:46:12;24.05;;;14.70;;
61702;SDS011;47622;47.726;3.298;2023-02-08T10:49:02;23.58;;;14.68;;
61702;SDS011;47622;47.726;3.298;2023-02-08T10:51:38;19.38;;;13.38;;
61702;SDS011;47622;47.726;3.298;2023-02-08T10:54:03;20.75;;;14.40;;
61702;SDS011;47622;47.726;3.298;2023-02-08T10:58:55;20.45;;;13.88;;
61702;SDS011;47622;47.726;3.298;2023-02-08T11:01:23;19.77;;;13.98;;
61702;SDS011;47622;47.726;3.298;2023-02-08T11:04:03;18.50;;;13.95;;
61702;SDS011;47622;47.726;3.298;2023-02-08T11:06:31;22.45;;;14.20;;
61702;SDS011;47622;47.726;3.298;2023-02-08T11:08:57;20.02;;;14.60;;
61702;SDS011;47622;47.726;3.298;2023-02-08T11:11:24;21.10;;;14.80;;
61702;SDS011;47622;47.726;3.298;2023-02-08T11:13:54;24.48;;;15.45;;
61702;SDS011;47622;47.726;3.298;2023-02-08T11:16:33;20.05;;;14.43;;
61702;SDS011;47622;47.726;3.298;2023-02-08T11:19:00;20.58;;;14.82;;
61702;SDS011;47622;47.726;3.298;2023-02-08T11:21:30;18.70;;;14.70;;
61702;SDS011;47622;47.726;3.298;2023-02-08T11:23:59;20.20;;;14.30;;
61702;SDS011;47622;47.726;3.298;2023-02-08T11:31:30;23.95;;;15.10;;
61702;SDS011;47622;47.726;3.298;2023-02-08T11:33:57;22.75;;;14.73;;
61702;SDS011;47622;47.726;3.298;2023-02-08T11:36:26;20.98;;;14.73;;
61702;SDS011;47622;47.726;3.298;2023-02-08T11:38:53;25.05;;;15.45;;
61702;SDS011;47622;47.726;3.298;2023-02-08T11:41:19;22.25;;;14.57;;
61702;SDS011;47622;47.726;3.298;2023-02-08T11:43:51;20.25;;;14.15;;
61702;SDS011;47622;47.726;3.298;2023-02-08T11:46:24;21.75;;;14.82;;
61702;SDS011;47622;47.726;3.298;2023-02-08T11:48:52;23.48;;;13.70;;
61702;SDS011;47622;47.726;3.298;2023-02-08T11:51:24;21.75;;;14.15;;
61702;SDS011;47622;47.726;3.298;2023-02-08T11:54:02;19.15;;;14.10;;
61702;SDS011;47622;47.726;3.298;2023-02-08T11:56:30;22.58;;;13.70;;
61702;SDS011;47622;47.726;3.298;2023-02-08T11:59:02;20.13;;;13.93;;
61702;SDS011;47622;47.726;3.298;2023-02-08T12:01:40;18.27;;;13.10;;
61702;SDS011;47622;47.726;3.298;2023-02-08T12:04:09;22.13;;;12.88;;
61702;SDS011;47622;47.726;3.298;2023-02-08T12:34:18;15.65;;;10.73;;
61702;SDS011;47622;47.726;3.298;2023-02-08T12:39:56;17.40;;;11.77;;
61702;SDS011;47622;47.726;3.298;2023-02-08T12:53:54;16.92;;;10.80;;
61702;SDS011;47622;47.726;3.298;2023-02-08T12:56:24;17.02;;;11.10;;
61702;SDS011;47622;47.726;3.298;2023-02-08T12:58:54;18.10;;;12.10;;
61702;SDS011;47622;47.726;3.298;2023-02-08T13:01:30;16.42;;;10.63;;
61702;SDS011;47622;47.726;3.298;2023-02-08T13:04:05;20.17;;;10.93;;
61702;SDS011;47622;47.726;3.298;2023-02-08T13:06:41;22.42;;;14.43;;
61702;SDS011;47622;47.726;3.298;2023-02-08T13:09:26;23.33;;;15.07;;
61702;SDS011;47622;47.726;3.298;2023-02-08T13:11:57;24.10;;;14.70;;
61702;SDS011;47622;47.726;3.298;2023-02-08T13:14:30;24.92;;;14.82;;
61702;SDS011;47622;47.726;3.298;2023-02-08T13:22:58;17.13;;;10.90;;
61702;SDS011;47622;47.726;3.298;2023-02-08T13:25:34;16.50;;;10.70;;
61702;SDS011;47622;47.726;3.298;2023-02-08T13:28:05;15.77;;;10.73;;
61702;SDS011;47622;47.726;3.298;2023-02-08T13:30:33;17.00;;;11.10;;
61702;SDS011;47622;47.726;3.298;2023-02-08T13:33:04;15.63;;;10.93;;
61702;SDS011;47622;47.726;3.298;2023-02-08T13:35:39;18.90;;;12.73;;
61702;SDS011;47622;47.726;3.298;2023-02-08T13:41:14;18.08;;;10.35;;
61702;SDS011;47622;47.726;3.298;2023-02-08T13:43:44;16.50;;;10.93;;
61702;SDS011;47622;47.726;3.298;2023-02-08T13:46:17;16.92;;;10.50;;
61702;SDS011;47622;47.726;3.298;2023-02-08T13:48:45;18.65;;;10.82;;
61702;SDS011;47622;47.726;3.298;2023-02-08T13:59:03;16.70;;;10.70;;
61702;SDS011;47622;47.726;3.298;2023-02-08T14:01:35;20.52;;;11.55;;
61702;SDS011;47622;47.726;3.298;2023-02-08T14:12:25;15.82;;;9.73;;
61702;SDS011;47622;47.726;3.298;2023-02-08T14:15:06;19.02;;;10.60;;
61702;SDS011;47622;47.726;3.298;2023-02-08T14:17:41;16.52;;;10.00;;
61702;SDS011;47622;47.726;3.298;2023-02-08T14:20:15;19.80;;;10.85;;
61702;SDS011;47622;47.726;3.298;2023-02-08T14:22:48;17.23;;;10.02;;
61702;SDS011;47622;47.726;3.298;2023-02-08T14:27:51;15.45;;;10.10;;
61702;SDS011;47622;47.726;3.298;2023-02-08T14:30:20;17.85;;;10.43;;
61702;SDS011;47622;47.726;3.298;2023-02-08T14:32:51;17.80;;;9.40;;
61702;SDS011;47622;47.726;3.298;2023-02-08T14:35:32;18.30;;;10.55;;
61702;SDS011;47622;47.726;3.298;2023-02-08T14:45:48;15.90;;;9.15;;
61702;SDS011;47622;47.726;3.298;2023-02-08T14:48:16;14.75;;;8.50;;
61702;SDS011;47622;47.726;3.298;2023-02-08T14:51:27;14.18;;;8.63;;
61702;SDS011;47622;47.726;3.298;2023-02-08T14:53:33;14.82;;;8.95;;
61702;SDS011;47622;47.726;3.298;2023-02-08T14:58:35;14.82;;;9.02;;
61702;SDS011;47622;47.726;3.298;2023-02-08T15:04:05;17.13;;;8.82;;
61702;SDS011;47622;47.726;3.298;2023-02-08T15:09:12;17.80;;;8.93;;
61702;SDS011;47622;47.726;3.298;2023-02-08T15:14:30;14.85;;;8.70;;
61702;SDS011;47622;47.726;3.298;2023-02-08T15:16:58;17.02;;;9.25;;
61702;SDS011;47622;47.726;3.298;2023-02-08T15:21:52;17.15;;;9.13;;
61702;SDS011;47622;47.726;3.298;2023-02-08T15:24:19;15.13;;;8.57;;
61702;SDS011;47622;47.726;3.298;2023-02-08T15:26:54;13.63;;;8.85;;
61702;SDS011;47622;47.726;3.298;2023-02-08T15:29:27;14.73;;;8.93;;
61702;SDS011;47622;47.726;3.298;2023-02-08T15:31:54;15.48;;;9.07;;
61702;SDS011;47622;47.726;3.298;2023-02-08T15:34:21;15.32;;;8.95;;
61702;SDS011;47622;47.726;3.298;2023-02-08T15:36:53;13.60;;;8.82;;
61702;SDS011;47622;47.726;3.298;2023-02-08T15:41:57;16.23;;;9.68;;
61702;SDS011;47622;47.726;3.298;2023-02-08T15:44:28;13.48;;;8.70;;
61702;SDS011;47622;47.726;3.298;2023-02-08T15:46:59;14.77;;;9.30;;
61702;SDS011;47622;47.726;3.298;2023-02-08T15:51:58;11.32;;;8.55;;
61702;SDS011;47622;47.726;3.298;2023-02-08T15:54:25;12.48;;;8.65;;
61702;SDS011;47622;47.726;3.298;2023-02-08T15:56:53;14.68;;;9.27;;
61702;SDS011;47622;47.726;3.298;2023-02-08T15:59:23;15.85;;;9.70;;
61702;SDS011;47622;47.726;3.298;2023-02-08T16:01:52;19.40;;;8.98;;
61702;SDS011;47622;47.726;3.298;2023-02-08T16:04:19;13.73;;;8.60;;
61702;SDS011;47622;47.726;3.298;2023-02-08T16:06:49;15.30;;;9.00;;
61702;SDS011;47622;47.726;3.298;2023-02-08T16:09:19;15.18;;;9.18;;
61702;SDS011;47622;47.726;3.298;2023-02-08T16:11:51;15.60;;;8.77;;
61702;SDS011;47622;47.726;3.298;2023-02-08T16:14:21;13.15;;;8.77;;
61702;SDS011;47622;47.726;3.298;2023-02-08T16:16:48;16.75;;;8.82;;
61702;SDS011;47622;47.726;3.298;2023-02-08T16:21:53;13.00;;;7.75;;
61702;SDS011;47622;47.726;3.298;2023-02-08T16:24:23;12.57;;;7.43;;
61702;SDS011;47622;47.726;3.298;2023-02-08T16:26:55;14.43;;;7.93;;
61702;SDS011;47622;47.726;3.298;2023-02-08T16:29:32;16.80;;;8.60;;
61702;SDS011;47622;47.726;3.298;2023-02-08T16:32:05;13.70;;;8.27;;
61702;SDS011;47622;47.726;3.298;2023-02-08T16:34:36;14.90;;;8.38;;
61702;SDS011;47622;47.726;3.298;2023-02-08T16:37:03;14.68;;;8.38;;
61702;SDS011;47622;47.726;3.298;2023-02-08T16:42:04;14.40;;;10.18;;
61702;SDS011;47622;47.726;3.298;2023-02-08T16:44:56;14.80;;;8.57;;
61702;SDS011;47622;47.726;3.298;2023-02-08T16:47:26;13.57;;;7.50;;
61702;SDS011;47622;47.726;3.298;2023-02-08T16:50:02;13.32;;;7.63;;
61702;SDS011;47622;47.726;3.298;2023-02-08T16:52:29;11.30;;;7.07;;
61702;SDS011;47622;47.726;3.298;2023-02-08T16:54:55;13.57;;;7.95;;
61702;SDS011;47622;47.726;3.298;2023-02-08T16:57:22;12.50;;;6.95;;
61702;SDS011;47622;47.726;3.298;2023-02-08T16:59:47;12.20;;;7.57;;
61702;SDS011;47622;47.726;3.298;2023-02-08T17:02:13;13.70;;;7.82;;
61702;SDS011;47622;47.726;3.298;2023-02-08T17:04:38;15.05;;;8.82;;
61702;SDS011;47622;47.726;3.298;2023-02-08T17:07:04;13.32;;;7.72;;
61702;SDS011;47622;47.726;3.298;2023-02-08T17:09:30;12.52;;;7.85;;
61702;SDS011;47622;47.726;3.298;2023-02-08T17:11:55;14.25;;;8.60;;
61702;SDS011;47622;47.726;3.298;2023-02-08T17:14:21;15.13;;;9.07;;
61702;SDS011;47622;47.726;3.298;2023-02-08T17:16:47;13.35;;;8.43;;
61702;SDS011;47622;47.726;3.298;2023-02-08T17:19:15;13.00;;;8.15;;
61702;SDS011;47622;47.726;3.298;2023-02-08T17:21:42;12.70;;;8.32;;
61702;SDS011;47622;47.726;3.298;2023-02-08T17:24:08;12.23;;;7.68;;
61702;SDS011;47622;47.726;3.298;2023-02-08T17:26:36;14.73;;;8.88;;
61702;SDS011;47622;47.726;3.298;2023-02-08T17:29:05;14.85;;;8.43;;
61702;SDS011;47622;47.726;3.298;2023-02-08T17:31:31;16.45;;;9.13;;
61702;SDS011;47622;47.726;3.298;2023-02-08T17:33:56;14.20;;;8.48;;
61702;SDS011;47622;47.726;3.298;2023-02-08T17:36:29;13.07;;;8.25;;
61702;SDS011;47622;47.726;3.298;2023-02-08T17:38:56;16.20;;;8.82;;
61702;SDS011;47622;47.726;3.298;2023-02-08T17:41:22;15.52;;;9.07;;
61702;SDS011;47622;47.726;3.298;2023-02-08T17:43:48;14.93;;;9.00;;
61702;SDS011;47622;47.726;3.298;2023-02-08T17:46:20;15.88;;;8.88;;